sensor_id;sensor_type;location;lat;lon;timestamp;temperature;humidity
8896;DHT22;4484;48.928;10.066;2023-02-18T00:01:17;9.80;99.90
8896;DHT22;4484;48.928;10.066;2023-02-18T00:03:44;9.80;99.90
8896;DHT22;4484;48.928;10.066;2023-02-18T00:06:14;9.80;99.90
8896;DHT22;4484;48.928;10.066;2023-02-18T00:08:43;9.80;99.90
8896;DHT22;4484;48.928;10.066;2023-02-18T00:11:11;9.80;99.90
8896;DHT22;4484;48.928;10.066;2023-02-18T00:13:38;9.80;99.90
8896;DHT22;4484;48.928;10.066;2023-02-18T00:16:11;9.80;99.90
8896;DHT22;4484;48.928;10.066;2023-02-18T00:18:39;9.80;99.90
8896;DHT22;4484;48.928;10.066;2023-02-18T00:21:08;9.80;99.90
8896;DHT22;4484;48.928;10.066;2023-02-18T00:23:38;9.80;99.90
8896;DHT22;4484;48.928;10.066;2023-02-18T00:26:14;9.80;99.90
8896;DHT22;4484;48.928;10.066;2023-02-18T00:28:42;9.80;99.90
8896;DHT22;4484;48.928;10.066;2023-02-18T00:31:12;9.80;99.90
8896;DHT22;4484;48.928;10.066;2023-02-18T00:33:40;9.80;99.90
8896;DHT22;4484;48.928;10.066;2023-02-18T00:36:10;9.80;99.90
8896;DHT22;4484;48.928;10.066;2023-02-18T00:38:37;9.80;99.90
8896;DHT22;4484;48.928;10.066;2023-02-18T00:41:04;9.90;99.90
8896;DHT22;4484;48.928;10.066;2023-02-18T00:43:32;9.90;99.90
8896;DHT22;4484;48.928;10.066;2023-02-18T00:45:59;9.90;99.90
8896;DHT22;4484;48.928;10.066;2023-02-18T00:48:27;9.80;99.90
8896;DHT22;4484;48.928;10.066;2023-02-18T00:50:54;9.80;99.90
8896;DHT22;4484;48.928;10.066;2023-02-18T00:53:22;9.80;99.90
8896;DHT22;4484;48.928;10.066;2023-02-18T00:55:49;9.80;99.90
8896;DHT22;4484;48.928;10.066;2023-02-18T00:58:16;9.70;99.90
8896;DHT22;4484;48.928;10.066;2023-02-18T01:00:43;9.70;99.90
8896;DHT22;4484;48.928;10.066;2023-02-18T01:03:11;9.60;99.90
8896;DHT22;4484;48.928;10.066;2023-02-18T01:05:39;9.60;99.90
8896;DHT22;4484;48.928;10.066;2023-02-18T01:08:08;9.50;99.90
8896;DHT22;4484;48.928;10.066;2023-02-18T01:10:42;9.50;99.90
8896;DHT22;4484;48.928;10.066;2023-02-18T01:13:11;9.50;99.90
8896;DHT22;4484;48.928;10.066;2023-02-18T01:15:39;9.50;99.90
8896;DHT22;4484;48.928;10.066;2023-02-18T01:18:09;9.50;99.90
8896;DHT22;4484;48.928;10.066;2023-02-18T01:20:37;9.40;99.90
8896;DHT22;4484;48.928;10.066;2023-02-18T01:23:07;9.40;99.90
8896;DHT22;4484;48.928;10.066;2023-02-18T01:25:34;9.40;99.90
8896;DHT22;4484;48.928;10.066;2023-02-18T01:28:02;9.40;99.90
8896;DHT22;4484;48.928;10.066;2023-02-18T01:30:29;9.40;99.90
8896;DHT22;4484;48.928;10.066;2023-02-18T01:32:57;9.40;99.90
8896;DHT22;4484;48.928;10.066;2023-02-18T01:35:24;9.30;99.90
8896;DHT22;4484;48.928;10.066;2023-02-18T01:37:51;9.30;99.90
8896;DHT22;4484;48.928;10.066;2023-02-18T01:40:21;9.30;99.90
8896;DHT22;4484;48.928;10.066;2023-02-18T01:42:49;9.20;99.90
8896;DHT22;4484;48.928;10.066;2023-02-18T01:48:14;9.20;99.90
8896;DHT22;4484;48.928;10.066;2023-02-18T01:50:55;9.10;99.90
8896;DHT22;4484;48.928;10.066;2023-02-18T01:53:49;9.10;99.90
8896;DHT22;4484;48.928;10.066;2023-02-18T01:56:23;9.10;99.90
8896;DHT22;4484;48.928;10.066;2023-02-18T01:58:53;9.00;99.90
8896;DHT22;4484;48.928;10.066;2023-02-18T02:01:20;9.00;99.90
8896;DHT22;4484;48.928;10.066;2023-02-18T02:03:48;9.00;99.90
8896;DHT22;4484;48.928;10.066;2023-02-18T02:06:18;9.00;99.90
8896;DHT22;4484;48.928;10.066;2023-02-18T02:08:50;8.90;99.90
8896;DHT22;4484;48.928;10.066;2023-02-18T02:17:04;8.90;99.90
8896;DHT22;4484;48.928;10.066;2023-02-18T02:23:13;8.90;99.90
8896;DHT22;4484;48.928;10.066;2023-02-18T02:25:52;8.90;99.90
8896;DHT22;4484;48.928;10.066;2023-02-18T02:45:54;8.90;99.90
8896;DHT22;4484;48.928;10.066;2023-02-18T02:53:46;8.90;99.90
8896;DHT22;4484;48.928;10.066;2023-02-18T02:56:16;8.90;99.90
8896;DHT22;4484;48.928;10.066;2023-02-18T02:58:46;8.90;99.90
8896;DHT22;4484;48.928;10.066;2023-02-18T03:04:58;8.90;99.90
8896;DHT22;4484;48.928;10.066;2023-02-18T03:12:53;8.90;99.90
8896;DHT22;4484;48.928;10.066;2023-02-18T03:20:56;8.90;99.90
8896;DHT22;4484;48.928;10.066;2023-02-18T03:23:28;8.90;99.90
8896;DHT22;4484;48.928;10.066;2023-02-18T03:25:58;8.90;99.90
8896;DHT22;4484;48.928;10.066;2023-02-18T03:28:28;8.90;99.90
8896;DHT22;4484;48.928;10.066;2023-02-18T03:31:11;8.90;99.90
8896;DHT22;4484;48.928;10.066;2023-02-18T03:33:52;9.00;99.90
8896;DHT22;4484;48.928;10.066;2023-02-18T03:36:20;9.00;99.90
8896;DHT22;4484;48.928;10.066;2023-02-18T03:39:08;9.00;99.90
8896;DHT22;4484;48.928;10.066;2023-02-18T03:41:36;9.00;99.90
8896;DHT22;4484;48.928;10.066;2023-02-18T03:44:06;9.00;99.90
8896;DHT22;4484;48.928;10.066;2023-02-18T03:46:34;9.00;99.90
8896;DHT22;4484;48.928;10.066;2023-02-18T03:49:02;9.10;99.90
8896;DHT22;4484;48.928;10.066;2023-02-18T03:51:29;9.10;99.90
8896;DHT22;4484;48.928;10.066;2023-02-18T03:53:56;9.10;99.90
8896;DHT22;4484;48.928;10.066;2023-02-18T03:56:23;9.20;99.90
8896;DHT22;4484;48.928;10.066;2023-02-18T03:58:50;9.20;99.90
8896;DHT22;4484;48.928;10.066;2023-02-18T04:01:17;9.20;99.90
8896;DHT22;4484;48.928;10.066;2023-02-18T04:03:44;9.20;99.90
8896;DHT22;4484;48.928;10.066;2023-02-18T04:06:11;9.20;99.90
8896;DHT22;4484;48.928;10.066;2023-02-18T04:08:38;9.20;99.90
8896;DHT22;4484;48.928;10.066;2023-02-18T04:11:05;9.30;99.90
8896;DHT22;4484;48.928;10.066;2023-02-18T04:13:32;9.30;99.90
8896;DHT22;4484;48.928;10.066;2023-02-18T04:15:58;9.30;99.90
8896;DHT22;4484;48.928;10.066;2023-02-18T04:18:25;9.30;99.90
8896;DHT22;4484;48.928;10.066;2023-02-18T04:20:52;9.40;99.90
8896;DHT22;4484;48.928;10.066;2023-02-18T04:23:19;9.40;99.90
8896;DHT22;4484;48.928;10.066;2023-02-18T04:25:46;9.40;99.90
8896;DHT22;4484;48.928;10.066;2023-02-18T04:28:14;9.40;99.90
8896;DHT22;4484;48.928;10.066;2023-02-18T04:30:46;9.50;99.90
8896;DHT22;4484;48.928;10.066;2023-02-18T04:33:14;9.50;99.90
8896;DHT22;4484;48.928;10.066;2023-02-18T04:35:41;9.40;99.90
8896;DHT22;4484;48.928;10.066;2023-02-18T04:38:09;9.40;99.90
8896;DHT22;4484;48.928;10.066;2023-02-18T04:40:37;9.50;99.90
8896;DHT22;4484;48.928;10.066;2023-02-18T04:43:04;9.50;99.90
8896;DHT22;4484;48.928;10.066;2023-02-18T04:45:30;9.50;99.90
8896;DHT22;4484;48.928;10.066;2023-02-18T04:47:57;9.50;99.90
8896;DHT22;4484;48.928;10.066;2023-02-18T04:50:24;9.50;99.90
8896;DHT22;4484;48.928;10.066;2023-02-18T04:52:51;9.50;99.90
8896;DHT22;4484;48.928;10.066;2023-02-18T04:55:18;9.50;99.90
8896;DHT22;4484;48.928;10.066;2023-02-18T04:57:45;9.50;99.90
8896;DHT22;4484;48.928;10.066;2023-02-18T05:00:15;9.50;99.90
8896;DHT22;4484;48.928;10.066;2023-02-18T05:02:42;9.50;99.90
8896;DHT22;4484;48.928;10.066;2023-02-18T05:05:10;9.50;99.90
8896;DHT22;4484;48.928;10.066;2023-02-18T05:07:37;9.50;99.90
8896;DHT22;4484;48.928;10.066;2023-02-18T05:10:04;9.50;99.90
8896;DHT22;4484;48.928;10.066;2023-02-18T05:12:31;9.50;99.90
8896;DHT22;4484;48.928;10.066;2023-02-18T05:14:58;9.50;99.90
8896;DHT22;4484;48.928;10.066;2023-02-18T05:17:25;9.50;99.90
8896;DHT22;4484;48.928;10.066;2023-02-18T05:19:52;9.50;99.90
8896;DHT22;4484;48.928;10.066;2023-02-18T05:22:20;9.40;99.90
8896;DHT22;4484;48.928;10.066;2023-02-18T05:24:47;9.40;99.90
8896;DHT22;4484;48.928;10.066;2023-02-18T05:27:14;9.40;99.90
8896;DHT22;4484;48.928;10.066;2023-02-18T05:29:41;9.40;99.90
8896;DHT22;4484;48.928;10.066;2023-02-18T05:32:07;9.30;99.90
8896;DHT22;4484;48.928;10.066;2023-02-18T05:34:35;9.40;99.90
8896;DHT22;4484;48.928;10.066;2023-02-18T05:37:02;9.40;99.90
8896;DHT22;4484;48.928;10.066;2023-02-18T05:39:28;9.30;99.90
8896;DHT22;4484;48.928;10.066;2023-02-18T05:41:55;9.30;99.90
8896;DHT22;4484;48.928;10.066;2023-02-18T05:44:22;9.40;99.90
8896;DHT22;4484;48.928;10.066;2023-02-18T05:47:02;9.30;99.90
8896;DHT22;4484;48.928;10.066;2023-02-18T05:49:30;9.40;99.90
8896;DHT22;4484;48.928;10.066;2023-02-18T05:51:58;9.40;99.90
8896;DHT22;4484;48.928;10.066;2023-02-18T05:54:26;9.30;99.90
8896;DHT22;4484;48.928;10.066;2023-02-18T05:56:54;9.40;99.90
8896;DHT22;4484;48.928;10.066;2023-02-18T05:59:21;9.40;99.90
8896;DHT22;4484;48.928;10.066;2023-02-18T06:01:48;9.40;99.90
8896;DHT22;4484;48.928;10.066;2023-02-18T06:04:16;9.40;99.90
8896;DHT22;4484;48.928;10.066;2023-02-18T06:06:43;9.40;99.90
8896;DHT22;4484;48.928;10.066;2023-02-18T06:09:10;9.40;99.90
8896;DHT22;4484;48.928;10.066;2023-02-18T06:11:37;9.30;99.90
8896;DHT22;4484;48.928;10.066;2023-02-18T06:14:04;9.40;99.90
8896;DHT22;4484;48.928;10.066;2023-02-18T06:16:31;9.40;99.90
8896;DHT22;4484;48.928;10.066;2023-02-18T06:18:58;9.40;99.90
8896;DHT22;4484;48.928;10.066;2023-02-18T06:21:25;9.40;99.90
8896;DHT22;4484;48.928;10.066;2023-02-18T06:23:52;9.40;99.90
8896;DHT22;4484;48.928;10.066;2023-02-18T06:26:19;9.40;99.90
8896;DHT22;4484;48.928;10.066;2023-02-18T06:28:46;9.50;99.90
8896;DHT22;4484;48.928;10.066;2023-02-18T06:31:13;9.40;99.90
8896;DHT22;4484;48.928;10.066;2023-02-18T06:33:40;9.30;99.90
8896;DHT22;4484;48.928;10.066;2023-02-18T06:36:09;9.30;99.90
8896;DHT22;4484;48.928;10.066;2023-02-18T06:38:39;9.40;99.90
8896;DHT22;4484;48.928;10.066;2023-02-18T06:41:06;9.40;99.90
8896;DHT22;4484;48.928;10.066;2023-02-18T06:43:33;9.40;99.90
8896;DHT22;4484;48.928;10.066;2023-02-18T06:46:01;9.40;99.90
8896;DHT22;4484;48.928;10.066;2023-02-18T06:48:28;9.30;99.90
8896;DHT22;4484;48.928;10.066;2023-02-18T06:50:55;9.30;99.90
8896;DHT22;4484;48.928;10.066;2023-02-18T06:53:22;9.30;99.90
8896;DHT22;4484;48.928;10.066;2023-02-18T06:55:49;9.30;99.90
8896;DHT22;4484;48.928;10.066;2023-02-18T06:58:16;9.30;99.90
8896;DHT22;4484;48.928;10.066;2023-02-18T07:00:43;9.30;99.90
8896;DHT22;4484;48.928;10.066;2023-02-18T07:03:12;9.30;99.90
8896;DHT22;4484;48.928;10.066;2023-02-18T07:05:41;9.40;99.90
8896;DHT22;4484;48.928;10.066;2023-02-18T07:08:08;9.30;99.90
8896;DHT22;4484;48.928;10.066;2023-02-18T07:10:35;9.40;99.90
8896;DHT22;4484;48.928;10.066;2023-02-18T07:13:03;9.30;99.90
8896;DHT22;4484;48.928;10.066;2023-02-18T07:15:30;9.40;99.90
8896;DHT22;4484;48.928;10.066;2023-02-18T07:17:57;9.40;99.90
8896;DHT22;4484;48.928;10.066;2023-02-18T07:20:25;9.40;99.90
8896;DHT22;4484;48.928;10.066;2023-02-18T07:22:53;9.40;99.90
8896;DHT22;4484;48.928;10.066;2023-02-18T07:25:20;9.40;99.90
8896;DHT22;4484;48.928;10.066;2023-02-18T07:27:49;9.50;99.90
8896;DHT22;4484;48.928;10.066;2023-02-18T07:30:18;9.50;99.90
8896;DHT22;4484;48.928;10.066;2023-02-18T07:32:45;9.50;99.90
8896;DHT22;4484;48.928;10.066;2023-02-18T07:35:13;9.50;99.90
8896;DHT22;4484;48.928;10.066;2023-02-18T07:37:48;9.50;99.90
8896;DHT22;4484;48.928;10.066;2023-02-18T07:40:18;9.60;99.90
8896;DHT22;4484;48.928;10.066;2023-02-18T07:42:47;9.60;99.90
8896;DHT22;4484;48.928;10.066;2023-02-18T07:45:14;9.60;99.90
8896;DHT22;4484;48.928;10.066;2023-02-18T07:47:41;9.60;99.90
8896;DHT22;4484;48.928;10.066;2023-02-18T07:50:13;9.70;99.90
8896;DHT22;4484;48.928;10.066;2023-02-18T07:52:40;9.70;99.90
8896;DHT22;4484;48.928;10.066;2023-02-18T07:55:07;9.70;99.90
8896;DHT22;4484;48.928;10.066;2023-02-18T07:57:34;9.70;99.90
8896;DHT22;4484;48.928;10.066;2023-02-18T08:00:21;9.70;99.90
8896;DHT22;4484;48.928;10.066;2023-02-18T08:02:48;9.80;99.90
8896;DHT22;4484;48.928;10.066;2023-02-18T08:05:15;9.90;99.90
8896;DHT22;4484;48.928;10.066;2023-02-18T08:07:42;9.90;99.90
8896;DHT22;4484;48.928;10.066;2023-02-18T08:10:09;10.00;99.90
8896;DHT22;4484;48.928;10.066;2023-02-18T08:12:36;10.10;99.90
8896;DHT22;4484;48.928;10.066;2023-02-18T08:15:04;10.20;99.90
8896;DHT22;4484;48.928;10.066;2023-02-18T08:17:31;10.30;99.90
8896;DHT22;4484;48.928;10.066;2023-02-18T08:19:58;10.30;99.90
8896;DHT22;4484;48.928;10.066;2023-02-18T08:22:25;10.30;99.90
8896;DHT22;4484;48.928;10.066;2023-02-18T08:24:54;10.30;99.90
8896;DHT22;4484;48.928;10.066;2023-02-18T08:27:23;10.40;99.90
8896;DHT22;4484;48.928;10.066;2023-02-18T08:29:50;10.40;99.90
8896;DHT22;4484;48.928;10.066;2023-02-18T08:32:17;10.50;99.90
8896;DHT22;4484;48.928;10.066;2023-02-18T08:34:44;10.60;99.90
8896;DHT22;4484;48.928;10.066;2023-02-18T08:37:11;10.60;99.90
8896;DHT22;4484;48.928;10.066;2023-02-18T08:39:38;10.70;99.90
8896;DHT22;4484;48.928;10.066;2023-02-18T08:42:05;10.70;99.90
8896;DHT22;4484;48.928;10.066;2023-02-18T08:44:32;10.80;99.90
8896;DHT22;4484;48.928;10.066;2023-02-18T08:46:59;10.80;99.90
8896;DHT22;4484;48.928;10.066;2023-02-18T08:49:26;10.90;99.90
8896;DHT22;4484;48.928;10.066;2023-02-18T08:51:54;11.10;99.90
8896;DHT22;4484;48.928;10.066;2023-02-18T08:54:21;11.10;99.90
8896;DHT22;4484;48.928;10.066;2023-02-18T08:56:48;11.20;99.90
8896;DHT22;4484;48.928;10.066;2023-02-18T08:59:15;11.20;99.90
8896;DHT22;4484;48.928;10.066;2023-02-18T09:01:42;11.30;99.90
8896;DHT22;4484;48.928;10.066;2023-02-18T09:04:09;11.40;99.90
8896;DHT22;4484;48.928;10.066;2023-02-18T09:06:37;11.40;99.90
8896;DHT22;4484;48.928;10.066;2023-02-18T09:09:04;11.40;99.90
8896;DHT22;4484;48.928;10.066;2023-02-18T09:11:32;11.50;99.90
8896;DHT22;4484;48.928;10.066;2023-02-18T09:13:59;11.50;99.90
8896;DHT22;4484;48.928;10.066;2023-02-18T09:16:26;11.50;99.90
8896;DHT22;4484;48.928;10.066;2023-02-18T09:18:54;11.40;99.90
8896;DHT22;4484;48.928;10.066;2023-02-18T09:21:22;11.50;99.90
8896;DHT22;4484;48.928;10.066;2023-02-18T09:23:49;11.60;99.90
8896;DHT22;4484;48.928;10.066;2023-02-18T09:26:18;11.70;99.90
8896;DHT22;4484;48.928;10.066;2023-02-18T09:28:47;11.80;99.90
8896;DHT22;4484;48.928;10.066;2023-02-18T09:31:17;12.10;99.90
8896;DHT22;4484;48.928;10.066;2023-02-18T09:33:51;12.20;99.90
8896;DHT22;4484;48.928;10.066;2023-02-18T09:36:18;12.20;99.90
8896;DHT22;4484;48.928;10.066;2023-02-18T09:38:46;12.20;99.90
8896;DHT22;4484;48.928;10.066;2023-02-18T09:41:28;12.30;99.90
8896;DHT22;4484;48.928;10.066;2023-02-18T09:43:59;12.30;99.90
8896;DHT22;4484;48.928;10.066;2023-02-18T09:46:28;12.30;99.90
8896;DHT22;4484;48.928;10.066;2023-02-18T09:48:59;12.30;99.90
8896;DHT22;4484;48.928;10.066;2023-02-18T09:51:27;12.30;99.90
8896;DHT22;4484;48.928;10.066;2023-02-18T09:53:54;12.30;99.90
8896;DHT22;4484;48.928;10.066;2023-02-18T09:56:31;12.30;99.90
8896;DHT22;4484;48.928;10.066;2023-02-18T09:59:03;12.30;99.90
8896;DHT22;4484;48.928;10.066;2023-02-18T10:01:35;12.10;99.90
8896;DHT22;4484;48.928;10.066;2023-02-18T10:04:30;12.00;99.90
8896;DHT22;4484;48.928;10.066;2023-02-18T10:07:02;11.90;99.90
8896;DHT22;4484;48.928;10.066;2023-02-18T10:09:35;11.80;99.90
8896;DHT22;4484;48.928;10.066;2023-02-18T10:12:22;11.80;99.90
8896;DHT22;4484;48.928;10.066;2023-02-18T10:14:54;11.70;99.90
8896;DHT22;4484;48.928;10.066;2023-02-18T10:17:24;11.60;99.90
8896;DHT22;4484;48.928;10.066;2023-02-18T10:19:53;11.60;99.90
8896;DHT22;4484;48.928;10.066;2023-02-18T10:22:23;11.60;99.90
8896;DHT22;4484;48.928;10.066;2023-02-18T10:24:59;11.50;99.90
8896;DHT22;4484;48.928;10.066;2023-02-18T10:27:30;11.40;99.90
8896;DHT22;4484;48.928;10.066;2023-02-18T10:44:09;11.30;99.90
8896;DHT22;4484;48.928;10.066;2023-02-18T10:52:05;11.30;99.90
8896;DHT22;4484;48.928;10.066;2023-02-18T10:54:52;11.40;99.90
8896;DHT22;4484;48.928;10.066;2023-02-18T10:57:24;11.40;99.90
8896;DHT22;4484;48.928;10.066;2023-02-18T11:00:15;11.40;99.90
8896;DHT22;4484;48.928;10.066;2023-02-18T11:02:42;11.40;99.90
8896;DHT22;4484;48.928;10.066;2023-02-18T11:05:35;11.40;99.90
8896;DHT22;4484;48.928;10.066;2023-02-18T11:08:07;11.50;99.90
8896;DHT22;4484;48.928;10.066;2023-02-18T11:10:39;11.50;99.90
8896;DHT22;4484;48.928;10.066;2023-02-18T11:13:11;11.50;99.90
8896;DHT22;4484;48.928;10.066;2023-02-18T11:16:02;11.60;99.90
8896;DHT22;4484;48.928;10.066;2023-02-18T11:18:42;11.60;99.90
8896;DHT22;4484;48.928;10.066;2023-02-18T11:21:30;11.70;99.90
8896;DHT22;4484;48.928;10.066;2023-02-18T11:24:05;11.80;99.90
8896;DHT22;4484;48.928;10.066;2023-02-18T11:26:35;11.80;99.90
8896;DHT22;4484;48.928;10.066;2023-02-18T11:31:46;11.90;99.90
8896;DHT22;4484;48.928;10.066;2023-02-18T11:34:26;12.00;99.90
8896;DHT22;4484;48.928;10.066;2023-02-18T11:36:54;12.00;99.90
8896;DHT22;4484;48.928;10.066;2023-02-18T11:39:23;12.10;99.90
8896;DHT22;4484;48.928;10.066;2023-02-18T11:47:01;12.10;99.90
8896;DHT22;4484;48.928;10.066;2023-02-18T11:49:29;12.00;99.90
8896;DHT22;4484;48.928;10.066;2023-02-18T11:52:24;12.00;99.90
8896;DHT22;4484;48.928;10.066;2023-02-18T11:58:04;11.90;99.90
8896;DHT22;4484;48.928;10.066;2023-02-18T12:00:47;12.00;99.90
8896;DHT22;4484;48.928;10.066;2023-02-18T12:06:36;11.90;99.90
8896;DHT22;4484;48.928;10.066;2023-02-18T12:11:42;11.80;99.90
8896;DHT22;4484;48.928;10.066;2023-02-18T12:14:17;11.80;99.90
8896;DHT22;4484;48.928;10.066;2023-02-18T12:31:26;12.10;99.90
8896;DHT22;4484;48.928;10.066;2023-02-18T12:35:14;12.10;99.90
8896;DHT22;4484;48.928;10.066;2023-02-18T12:37:29;12.30;99.90
8896;DHT22;4484;48.928;10.066;2023-02-18T12:42:55;12.50;99.90
8896;DHT22;4484;48.928;10.066;2023-02-18T13:02:03;13.60;99.90
8896;DHT22;4484;48.928;10.066;2023-02-18T13:12:50;13.30;99.90
8896;DHT22;4484;48.928;10.066;2023-02-18T13:15:26;13.20;99.90
8896;DHT22;4484;48.928;10.066;2023-02-18T13:17:57;13.10;99.90
8896;DHT22;4484;48.928;10.066;2023-02-18T13:20:39;13.10;99.90
8896;DHT22;4484;48.928;10.066;2023-02-18T13:23:15;13.00;99.90
8896;DHT22;4484;48.928;10.066;2023-02-18T13:25:43;13.00;99.90
8896;DHT22;4484;48.928;10.066;2023-02-18T13:31:11;12.90;99.90
8896;DHT22;4484;48.928;10.066;2023-02-18T13:39:03;13.40;99.90
8896;DHT22;4484;48.928;10.066;2023-02-18T13:41:51;13.90;99.90
8896;DHT22;4484;48.928;10.066;2023-02-18T13:46:48;14.60;99.90
8896;DHT22;4484;48.928;10.066;2023-02-18T13:49:26;14.60;99.90
8896;DHT22;4484;48.928;10.066;2023-02-18T13:51:58;14.50;99.90
8896;DHT22;4484;48.928;10.066;2023-02-18T13:54:43;14.40;99.90
8896;DHT22;4484;48.928;10.066;2023-02-18T13:57:19;14.30;99.90
8896;DHT22;4484;48.928;10.066;2023-02-18T14:00:04;14.40;99.90
8896;DHT22;4484;48.928;10.066;2023-02-18T14:02:35;14.70;99.90
8896;DHT22;4484;48.928;10.066;2023-02-18T14:05:19;15.00;99.90
8896;DHT22;4484;48.928;10.066;2023-02-18T14:07:52;14.90;99.90
8896;DHT22;4484;48.928;10.066;2023-02-18T14:10:34;14.60;99.90
8896;DHT22;4484;48.928;10.066;2023-02-18T14:15:56;13.80;99.90
8896;DHT22;4484;48.928;10.066;2023-02-18T14:21:18;13.30;99.90
8896;DHT22;4484;48.928;10.066;2023-02-18T14:23:56;13.00;99.90
8896;DHT22;4484;48.928;10.066;2023-02-18T14:26:34;12.90;99.90
8896;DHT22;4484;48.928;10.066;2023-02-18T14:29:29;12.80;99.90
8896;DHT22;4484;48.928;10.066;2023-02-18T14:32:03;12.70;99.90
8896;DHT22;4484;48.928;10.066;2023-02-18T14:34:52;12.60;99.90
8896;DHT22;4484;48.928;10.066;2023-02-18T14:51:31;12.30;99.90
8896;DHT22;4484;48.928;10.066;2023-02-18T14:54:11;12.30;99.90
8896;DHT22;4484;48.928;10.066;2023-02-18T14:56:50;12.40;99.90
8896;DHT22;4484;48.928;10.066;2023-02-18T14:59:17;12.60;99.90
8896;DHT22;4484;48.928;10.066;2023-02-18T15:01:46;12.90;99.90
8896;DHT22;4484;48.928;10.066;2023-02-18T15:04:14;13.00;99.90
8896;DHT22;4484;48.928;10.066;2023-02-18T15:06:41;12.90;99.90
8896;DHT22;4484;48.928;10.066;2023-02-18T15:09:18;12.90;99.90
8896;DHT22;4484;48.928;10.066;2023-02-18T15:11:51;12.80;99.90
8896;DHT22;4484;48.928;10.066;2023-02-18T15:14:24;12.70;99.90
8896;DHT22;4484;48.928;10.066;2023-02-18T15:16:52;12.60;99.90
8896;DHT22;4484;48.928;10.066;2023-02-18T15:19:22;12.50;99.90
8896;DHT22;4484;48.928;10.066;2023-02-18T15:21:50;12.40;99.90
8896;DHT22;4484;48.928;10.066;2023-02-18T15:24:36;12.40;99.90
8896;DHT22;4484;48.928;10.066;2023-02-18T15:27:14;12.30;99.90
8896;DHT22;4484;48.928;10.066;2023-02-18T15:29:41;12.30;99.90
8896;DHT22;4484;48.928;10.066;2023-02-18T15:32:21;12.20;99.90
8896;DHT22;4484;48.928;10.066;2023-02-18T15:34:57;12.20;99.90
8896;DHT22;4484;48.928;10.066;2023-02-18T15:37:29;12.20;99.90
8896;DHT22;4484;48.928;10.066;2023-02-18T15:39:56;12.10;99.90
8896;DHT22;4484;48.928;10.066;2023-02-18T15:42:29;12.00;99.90
8896;DHT22;4484;48.928;10.066;2023-02-18T15:47:27;11.90;99.90
8896;DHT22;4484;48.928;10.066;2023-02-18T15:49:58;11.90;99.90
8896;DHT22;4484;48.928;10.066;2023-02-18T15:52:29;11.80;99.90
8896;DHT22;4484;48.928;10.066;2023-02-18T15:55:03;11.80;99.90
8896;DHT22;4484;48.928;10.066;2023-02-18T15:57:33;11.70;99.90
8896;DHT22;4484;48.928;10.066;2023-02-18T16:00:28;11.70;99.90
8896;DHT22;4484;48.928;10.066;2023-02-18T16:03:03;11.60;99.90
8896;DHT22;4484;48.928;10.066;2023-02-18T16:05:30;11.60;99.90
8896;DHT22;4484;48.928;10.066;2023-02-18T16:08:05;11.50;99.90
8896;DHT22;4484;48.928;10.066;2023-02-18T16:13:03;11.40;99.90
8896;DHT22;4484;48.928;10.066;2023-02-18T16:15:42;11.30;99.90
8896;DHT22;4484;48.928;10.066;2023-02-18T16:18:29;11.30;99.90
8896;DHT22;4484;48.928;10.066;2023-02-18T16:23:50;11.20;99.90
8896;DHT22;4484;48.928;10.066;2023-02-18T16:29:22;11.10;99.90
8896;DHT22;4484;48.928;10.066;2023-02-18T16:31:50;11.10;99.90
8896;DHT22;4484;48.928;10.066;2023-02-18T16:34:17;11.00;99.90
8896;DHT22;4484;48.928;10.066;2023-02-18T16:36:45;11.00;99.90
8896;DHT22;4484;48.928;10.066;2023-02-18T16:39:33;11.00;99.90
8896;DHT22;4484;48.928;10.066;2023-02-18T16:42:00;11.00;99.90
8896;DHT22;4484;48.928;10.066;2023-02-18T16:44:27;11.00;99.90
8896;DHT22;4484;48.928;10.066;2023-02-18T16:46:55;10.90;99.90
8896;DHT22;4484;48.928;10.066;2023-02-18T16:49:22;10.90;99.90
8896;DHT22;4484;48.928;10.066;2023-02-18T16:51:49;10.90;99.90
8896;DHT22;4484;48.928;10.066;2023-02-18T16:54:16;10.80;99.90
8896;DHT22;4484;48.928;10.066;2023-02-18T16:56:44;10.80;99.90
8896;DHT22;4484;48.928;10.066;2023-02-18T16:59:10;10.80;99.90
8896;DHT22;4484;48.928;10.066;2023-02-18T17:01:40;10.80;99.90
8896;DHT22;4484;48.928;10.066;2023-02-18T17:04:12;10.80;99.90
8896;DHT22;4484;48.928;10.066;2023-02-18T17:06:40;10.80;99.90
8896;DHT22;4484;48.928;10.066;2023-02-18T17:09:14;10.70;99.90
8896;DHT22;4484;48.928;10.066;2023-02-18T17:11:50;10.70;99.90
8896;DHT22;4484;48.928;10.066;2023-02-18T17:14:19;10.70;99.90
8896;DHT22;4484;48.928;10.066;2023-02-18T17:16:48;10.60;99.90
8896;DHT22;4484;48.928;10.066;2023-02-18T17:19:16;10.60;99.90
8896;DHT22;4484;48.928;10.066;2023-02-18T17:21:43;10.60;99.90
8896;DHT22;4484;48.928;10.066;2023-02-18T17:24:14;10.50;99.90
8896;DHT22;4484;48.928;10.066;2023-02-18T17:26:42;10.50;99.90
8896;DHT22;4484;48.928;10.066;2023-02-18T17:29:09;10.40;99.90
8896;DHT22;4484;48.928;10.066;2023-02-18T17:31:41;10.30;99.90
8896;DHT22;4484;48.928;10.066;2023-02-18T17:34:27;10.30;99.90
8896;DHT22;4484;48.928;10.066;2023-02-18T17:36:54;10.20;99.90
8896;DHT22;4484;48.928;10.066;2023-02-18T17:39:21;10.20;99.90
8896;DHT22;4484;48.928;10.066;2023-02-18T17:41:50;10.10;99.90
8896;DHT22;4484;48.928;10.066;2023-02-18T17:44:22;10.10;99.90
8896;DHT22;4484;48.928;10.066;2023-02-18T17:46:49;10.00;99.90
8896;DHT22;4484;48.928;10.066;2023-02-18T17:49:17;9.90;99.90
8896;DHT22;4484;48.928;10.066;2023-02-18T17:51:44;9.80;99.90
8896;DHT22;4484;48.928;10.066;2023-02-18T17:54:16;9.80;99.90
8896;DHT22;4484;48.928;10.066;2023-02-18T17:56:44;9.70;99.90
8896;DHT22;4484;48.928;10.066;2023-02-18T17:59:11;9.60;99.90
8896;DHT22;4484;48.928;10.066;2023-02-18T18:01:38;9.60;99.90
8896;DHT22;4484;48.928;10.066;2023-02-18T18:04:12;9.60;99.90
8896;DHT22;4484;48.928;10.066;2023-02-18T18:06:40;9.50;99.90
8896;DHT22;4484;48.928;10.066;2023-02-18T18:09:07;9.40;99.90
8896;DHT22;4484;48.928;10.066;2023-02-18T18:11:35;9.40;99.90
8896;DHT22;4484;48.928;10.066;2023-02-18T18:14:02;9.30;99.90
8896;DHT22;4484;48.928;10.066;2023-02-18T18:16:29;9.20;99.90
8896;DHT22;4484;48.928;10.066;2023-02-18T18:18:56;9.20;99.90
8896;DHT22;4484;48.928;10.066;2023-02-18T18:21:30;9.10;99.90
8896;DHT22;4484;48.928;10.066;2023-02-18T18:23:57;9.00;99.90
8896;DHT22;4484;48.928;10.066;2023-02-18T18:26:24;9.00;99.90
8896;DHT22;4484;48.928;10.066;2023-02-18T18:28:51;9.00;99.90
8896;DHT22;4484;48.928;10.066;2023-02-18T18:31:19;8.90;99.90
8896;DHT22;4484;48.928;10.066;2023-02-18T18:33:48;8.90;99.90
8896;DHT22;4484;48.928;10.066;2023-02-18T18:36:18;8.80;99.90
8896;DHT22;4484;48.928;10.066;2023-02-18T18:38:46;8.70;99.90
8896;DHT22;4484;48.928;10.066;2023-02-18T18:41:15;8.70;99.90
8896;DHT22;4484;48.928;10.066;2023-02-18T18:43:42;8.70;99.90
8896;DHT22;4484;48.928;10.066;2023-02-18T18:46:10;8.70;99.90
8896;DHT22;4484;48.928;10.066;2023-02-18T18:48:38;8.60;99.90
8896;DHT22;4484;48.928;10.066;2023-02-18T18:51:05;8.60;99.90
8896;DHT22;4484;48.928;10.066;2023-02-18T18:53:34;8.50;99.90
8896;DHT22;4484;48.928;10.066;2023-02-18T18:56:03;8.50;99.90
8896;DHT22;4484;48.928;10.066;2023-02-18T18:58:31;8.50;99.90
8896;DHT22;4484;48.928;10.066;2023-02-18T19:01:00;8.40;99.90
8896;DHT22;4484;48.928;10.066;2023-02-18T19:03:29;8.40;99.90
8896;DHT22;4484;48.928;10.066;2023-02-18T19:05:56;8.40;99.90